Time;durP1;ratioP1;P1;durP2;ratioP2;P2;SDS_P1;SDS_P2;PMS_P1;PMS_P2;Temp;Humidity;BMP_temperature;BMP_pressure;BME280_temperature;BME280_humidity;BME280_pressure;Samples;Min_cycle;Max_cycle;Signal;HPM_P1;HPM_P2
2021/08/27 00:00:51;;;;;;;1.35;1.25;;;;;;;16.90;68.15;100351.97;5008431;28;20120;-48
2021/08/27 00:03:17;;;;;;;1.45;1.05;;;;;;;16.89;68.08;100351.13;5013318;28;20029;-48
2021/08/27 00:05:43;;;;;;;1.30;1.08;;;;;;;16.84;68.09;100339.75;5014024;28;20100;-48
2021/08/27 00:08:09;;;;;;;1.20;1.10;;;;;;;16.85;68.18;100357.50;5010527;28;20025;-48
2021/08/27 00:10:35;;;;;;;1.95;0.90;;;;;;;16.86;68.19;100358.34;5013884;28;20660;-48
2021/08/27 00:13:01;;;;;;;2.10;1.05;;;;;;;16.86;68.13;100350.34;5010877;28;20030;-50
2021/08/27 00:15:27;;;;;;;2.33;1.30;;;;;;;16.83;68.05;100355.81;5013575;28;20022;-48
2021/08/27 00:17:52;;;;;;;1.25;1.08;;;;;;;16.82;68.14;100352.28;5013703;28;20567;-48
2021/08/27 00:20:18;;;;;;;1.48;1.38;;;;;;;16.83;68.08;100353.13;5009881;28;20076;-48
2021/08/27 00:22:44;;;;;;;2.03;1.70;;;;;;;16.84;68.07;100352.22;5012575;28;20397;-49
2021/08/27 00:25:10;;;;;;;2.58;1.45;;;;;;;16.83;68.05;100347.81;5013036;28;20026;-48
2021/08/27 00:27:36;;;;;;;1.52;1.42;;;;;;;16.84;68.10;100346.91;5012239;28;20044;-48
2021/08/27 00:30:03;;;;;;;1.70;1.60;;;;;;;16.87;68.05;100347.63;4983763;28;20474;-48
2021/08/27 00:32:29;;;;;;;2.00;1.30;;;;;;;16.84;67.94;100339.75;5010473;28;20025;-48
2021/08/27 00:34:54;;;;;;;1.40;1.30;;;;;;;16.83;68.16;100334.50;5013136;28;20384;-48
2021/08/27 00:37:20;;;;;;;2.85;1.30;;;;;;;16.82;68.16;100340.75;5013314;28;20026;-48
2021/08/27 00:39:47;;;;;;;1.60;1.50;;;;;;;16.82;68.16;100332.78;5011315;28;20033;-48
2021/08/27 00:42:13;;;;;;;1.45;1.33;;;;;;;16.79;68.06;100336.44;5009546;28;20046;-48
2021/08/27 00:44:38;;;;;;;1.40;1.30;;;;;;;16.79;68.24;100325.78;5008438;28;20151;-48
2021/08/27 00:47:05;;;;;;;1.75;1.45;;;;;;;16.80;68.05;100324.84;5010797;28;20037;-48
2021/08/27 00:49:31;;;;;;;2.13;1.60;;;;;;;16.82;68.02;100327.44;5013118;28;20026;-48
2021/08/27 00:51:57;;;;;;;2.90;1.77;;;;;;;16.80;68.06;100324.84;4995720;28;20854;-48
2021/08/27 00:54:23;;;;;;;1.67;1.58;;;;;;;16.77;68.12;100317.84;5012601;28;20773;-48
2021/08/27 00:56:52;;;;;;;1.92;1.40;;;;;;;16.76;68.19;100316.13;5010821;28;20500;-48
2021/08/27 00:59:18;;;;;;;1.40;1.30;;;;;;;16.79;68.14;100325.78;5009765;28;20549;-48
2021/08/27 01:01:44;;;;;;;1.40;1.30;;;;;;;16.76;68.21;100325.91;5011962;28;20044;-48
2021/08/27 01:04:10;;;;;;;2.83;1.58;;;;;;;16.80;68.07;100333.72;5012428;28;20397;-48
2021/08/27 01:06:41;;;;;;;2.20;1.75;;;;;;;16.77;68.03;100333.84;5012930;28;20021;-48
2021/08/27 01:09:11;;;;;;;3.65;1.45;;;;;;;16.76;68.13;100332.09;5031895;23;20033;-49
2021/08/27 01:11:51;;;;;;;3.45;1.85;;;;;;;16.75;68.15;100335.72;5031563;28;20047;-49
2021/08/27 01:14:32;;;;;;;3.58;1.95;;;;;;;16.74;68.08;100327.78;5028013;28;20040;-49
2021/08/27 01:17:21;;;;;;;1.65;1.42;;;;;;;16.73;68.12;100337.56;5029397;28;20091;-49
2021/08/27 01:20:09;;;;;;;2.97;1.70;;;;;;;16.70;68.21;100337.66;5029854;28;20033;-49
2021/08/27 01:23:12;;;;;;;1.65;1.50;;;;;;;16.72;68.15;100335.81;5029042;28;20139;-49
2021/08/27 01:25:41;;;;;;;1.90;1.70;;;;;;;16.70;68.25;100332.34;5030822;28;20033;-49
2021/08/27 01:28:08;;;;;;;1.33;1.20;;;;;;;16.69;68.20;100341.25;5011976;28;20060;-49
2021/08/27 01:30:42;;;;;;;1.77;1.58;;;;;;;16.68;67.96;100335.06;5031197;28;20563;-49
2021/08/27 01:33:21;;;;;;;2.53;1.60;;;;;;;16.70;68.01;100331.50;5013318;28;20040;-48
2021/08/27 01:36:04;;;;;;;1.85;1.75;;;;;;;16.67;68.25;100343.09;5027886;28;20113;-49
2021/08/27 01:38:36;;;;;;;1.60;1.50;;;;;;;16.68;67.95;100340.38;5030485;28;20032;-49
2021/08/27 01:41:02;;;;;;;1.67;1.58;;;;;;;16.67;68.01;100340.44;5014025;28;20018;-49
2021/08/27 01:43:29;;;;;;;2.28;1.70;;;;;;;16.68;68.04;100334.22;5030544;28;20028;-49
2021/08/27 01:45:58;;;;;;;1.85;1.70;;;;;;;16.66;68.08;100331.63;5029277;28;20029;-49
2021/08/27 01:48:26;;;;;;;1.63;1.50;;;;;;;16.65;68.14;100334.34;5028933;28;20048;-49
2021/08/27 01:50:54;;;;;;;1.80;1.70;;;;;;;16.66;68.15;100338.72;5013659;28;20108;-49
2021/08/27 01:53:24;;;;;;;1.70;1.60;;;;;;;16.66;67.99;100333.41;5031592;28;20048;-48
2021/08/27 01:55:50;;;;;;;1.90;1.67;;;;;;;16.66;68.18;100336.06;5021137;28;20481;-49
2021/08/27 01:58:16;;;;;;;3.05;2.72;;;;;;;16.64;68.24;100333.47;5015581;28;20120;-49
2021/08/27 02:00:42;;;;;;;2.50;1.85;;;;;;;16.61;68.15;100338.03;5031590;28;20112;-47
2021/08/27 02:03:08;;;;;;;2.47;1.83;;;;;;;16.65;68.22;100334.34;5014086;28;20025;-49
2021/08/27 02:05:34;;;;;;;2.08;1.88;;;;;;;16.65;68.10;100344.97;5085409;22;20378;-50
2021/08/27 02:08:00;;;;;;;2.38;2.17;;;;;;;16.65;68.03;100339.66;5010985;28;20030;-52
2021/08/27 02:10:27;;;;;;;2.30;2.10;;;;;;;16.65;67.95;100337.88;4993671;28;20018;-52
2021/08/27 02:12:52;;;;;;;2.58;2.00;;;;;;;16.63;68.15;100337.06;4985661;28;20025;-52
2021/08/27 02:15:21;;;;;;;3.05;2.13;;;;;;;16.64;68.14;100340.59;4989449;28;20025;-53
2021/08/27 02:17:47;;;;;;;2.03;1.92;;;;;;;16.62;68.17;100350.44;4977420;28;20081;-53
2021/08/27 02:20:12;;;;;;;2.92;1.98;;;;;;;16.62;68.26;100345.09;4992554;28;20022;-53
2021/08/27 02:22:38;;;;;;;3.53;2.20;;;;;;;16.59;68.16;100340.78;4981094;28;20539;-53
2021/08/27 02:25:07;;;;;;;2.13;2.00;;;;;;;16.60;68.29;100342.50;5000114;28;20041;-53
2021/08/27 02:27:34;;;;;;;2.63;2.35;;;;;;;16.60;68.15;100341.66;4995254;28;20037;-53
2021/08/27 02:30:00;;;;;;;2.60;2.30;;;;;;;16.60;68.16;100341.66;4980885;28;20391;-52
2021/08/27 02:32:26;;;;;;;3.85;2.42;;;;;;;16.60;68.27;100342.50;4979368;28;20033;-53
2021/08/27 02:34:53;;;;;;;2.25;2.05;;;;;;;16.59;68.21;100338.09;4977417;28;20022;-52
2021/08/27 02:37:19;;;;;;;2.50;2.17;;;;;;;16.59;68.31;100335.44;4994968;28;20022;-56
2021/08/27 02:39:45;;;;;;;2.95;2.75;;;;;;;16.61;68.37;100346.03;4977620;28;20022;-56
2021/08/27 02:42:10;;;;;;;2.70;2.50;;;;;;;16.61;68.11;100332.72;4979788;28;20504;-56
2021/08/27 02:44:36;;;;;;;2.75;2.55;;;;;;;16.59;68.28;100337.22;4973409;28;20029;-55
2021/08/27 02:47:02;;;;;;;3.42;2.33;;;;;;;16.59;68.29;100339.88;4992621;28;20470;-55
2021/08/27 02:49:28;;;;;;;3.03;2.83;;;;;;;16.58;68.28;100338.16;4972293;28;20037;-56
2021/08/27 02:52:11;;;;;;;3.05;2.75;;;;;;;16.58;68.24;100338.16;4991897;28;20018;-56
2021/08/27 02:55:15;;;;;;;2.45;2.25;;;;;;;16.57;68.34;100336.44;4988780;28;20037;-56
2021/08/27 02:57:58;;;;;;;2.97;2.72;;;;;;;16.57;68.56;100337.28;4931212;29;20481;-56
2021/08/27 03:00:24;;;;;;;3.22;2.92;;;;;;;16.55;68.50;100332.03;4929938;29;20023;-55
2021/08/27 03:02:50;;;;;;;3.25;2.95;;;;;;;16.57;68.50;100341.75;4948182;28;20035;-56
2021/08/27 03:05:22;;;;;;;3.20;3.00;;;;;;;16.53;68.56;100331.22;4972720;28;20030;-56
2021/08/27 03:07:54;;;;;;;3.63;3.15;;;;;;;16.55;68.56;100334.69;4974012;28;20033;-56
2021/08/27 03:10:25;;;;;;;3.53;3.22;;;;;;;16.54;68.47;100332.97;4976897;28;20089;-54
2021/08/27 03:13:01;;;;;;;3.55;3.25;;;;;;;16.54;68.34;100332.97;4971728;28;20019;-55
2021/08/27 03:15:55;;;;;;;3.33;3.08;;;;;;;16.55;68.68;100329.34;4972381;28;20034;-56
2021/08/27 03:18:42;;;;;;;3.65;3.35;;;;;;;16.53;68.38;100331.22;4986681;28;20482;-56
2021/08/27 03:21:27;;;;;;;3.00;2.72;;;;;;;16.52;68.61;100325.97;4974332;28;20037;-55
2021/08/27 03:23:55;;;;;;;3.88;3.13;;;;;;;16.52;68.49;100323.31;4972923;28;20037;-55
2021/08/27 03:26:23;;;;;;;3.05;2.85;;;;;;;16.51;68.75;100325.09;4973170;28;20397;-53
2021/08/27 03:29:02;;;;;;;3.03;2.83;;;;;;;16.52;68.51;100321.53;4973225;28;20022;-56
2021/08/27 03:31:28;;;;;;;3.20;2.90;;;;;;;16.51;68.38;100319.75;4974484;28;20427;-55
2021/08/27 03:33:55;;;;;;;2.90;2.70;;;;;;;16.50;68.41;100318.03;4973545;28;20033;-56
2021/08/27 03:36:28;;;;;;;3.28;2.97;;;;;;;16.51;68.40;100318.91;4973469;28;20023;-55
2021/08/27 03:38:55;;;;;;;3.33;2.83;;;;;;;16.52;68.38;100320.63;4987615;28;20023;-56
2021/08/27 03:41:23;;;;;;;3.20;2.90;;;;;;;16.51;68.49;100325.09;4991021;28;20046;-56
2021/08/27 03:43:49;;;;;;;3.92;2.92;;;;;;;16.48;68.49;100319.91;4973205;28;20050;-53
2021/08/27 03:46:14;;;;;;;3.17;2.95;;;;;;;16.49;68.44;100324.28;4980165;28;20064;-53
2021/08/27 03:48:40;;;;;;;2.85;2.65;;;;;;;16.50;68.48;100320.69;4997068;28;20054;-53
2021/08/27 03:51:05;;;;;;;3.47;2.65;;;;;;;16.50;68.48;100326.03;4996840;28;20486;-53
2021/08/27 03:53:31;;;;;;;3.63;3.00;;;;;;;16.48;68.48;100322.56;4993964;28;20077;-55
2021/08/27 03:55:57;;;;;;;4.22;2.85;;;;;;;16.48;68.52;100319.91;4995477;28;20069;-56
2021/08/27 03:58:23;;;;;;;2.95;2.75;;;;;;;16.48;68.62;100321.69;4976806;28;20049;-53
2021/08/27 04:00:50;;;;;;;2.85;2.63;;;;;;;16.48;68.36;100311.94;4993976;28;20022;-54
2021/08/27 04:03:15;;;;;;;3.65;2.78;;;;;;;16.47;68.48;100310.16;4991270;28;20052;-54
2021/08/27 04:05:57;;;;;;;3.75;2.88;;;;;;;16.46;68.51;100316.44;4990486;28;20065;-54
2021/08/27 04:08:22;;;;;;;3.22;2.92;;;;;;;16.48;68.33;100311.94;4973624;28;20023;-53
2021/08/27 04:10:47;;;;;;;3.15;2.85;;;;;;;16.48;68.52;100317.25;4975834;28;20026;-54
2021/08/27 04:13:13;;;;;;;3.28;2.97;;;;;;;16.45;68.40;100314.69;4986237;28;20027;-52
2021/08/27 04:15:38;;;;;;;3.40;3.10;;;;;;;16.45;68.44;100311.16;4973250;28;20421;-53
2021/08/27 04:18:06;;;;;;;3.40;3.08;;;;;;;16.45;68.37;100314.69;4991026;28;20034;-53
2021/08/27 04:20:31;;;;;;;4.90;3.53;;;;;;;16.44;68.42;100310.28;4987933;28;20478;-54
2021/08/27 04:22:57;;;;;;;3.38;2.80;;;;;;;16.45;68.41;100316.47;4991010;28;20042;-54
2021/08/27 04:25:22;;;;;;;3.40;3.03;;;;;;;16.45;68.56;100320.03;4989739;28;20113;-53
2021/08/27 04:27:47;;;;;;;3.67;2.65;;;;;;;16.47;68.34;100319.97;4990574;28;20113;-56
2021/08/27 04:30:13;;;;;;;3.05;2.70;;;;;;;16.44;68.40;100314.75;4990899;28;20160;-56
2021/08/27 04:32:38;;;;;;;3.17;2.90;;;;;;;16.45;68.31;100316.47;4988118;28;20025;-55
2021/08/27 04:35:04;;;;;;;3.95;3.35;;;;;;;16.44;68.54;100323.59;4990172;28;20034;-56
2021/08/27 04:37:30;;;;;;;3.40;3.15;;;;;;;16.42;68.51;100310.38;4973415;28;20107;-56
2021/08/27 04:39:55;;;;;;;3.40;2.92;;;;;;;16.41;68.55;100305.09;4994133;28;20101;-53
2021/08/27 04:42:20;;;;;;;4.07;3.67;;;;;;;16.42;68.44;100304.16;4994245;28;20068;-54
2021/08/27 04:44:46;;;;;;;3.83;3.45;;;;;;;16.41;68.43;100311.28;4992902;28;20022;-54
2021/08/27 04:47:11;;;;;;;3.70;3.40;;;;;;;16.41;68.45;100307.78;4994244;28;20476;-53
2021/08/27 04:49:36;;;;;;;3.75;3.42;;;;;;;16.40;68.47;100308.69;5003517;28;20038;-54
2021/08/27 04:52:02;;;;;;;4.07;3.33;;;;;;;16.41;68.48;100307.78;4998708;28;20033;-53
2021/08/27 04:54:27;;;;;;;3.80;3.50;;;;;;;16.41;68.47;100299.78;4997453;28;20030;-54
2021/08/27 04:56:55;;;;;;;3.78;3.38;;;;;;;16.39;68.62;100309.59;4993960;28;20605;-56
2021/08/27 04:59:26;;;;;;;3.95;3.42;;;;;;;16.40;68.44;100298.03;4993798;28;20057;-53
2021/08/27 05:01:52;;;;;;;4.57;3.60;;;;;;;16.39;68.45;100301.63;4993838;28;20500;-54
2021/08/27 05:04:17;;;;;;;4.20;3.78;;;;;;;16.38;68.48;100300.75;4992968;28;20030;-53
2021/08/27 05:06:42;;;;;;;4.03;3.60;;;;;;;16.38;68.48;100299.91;4993611;28;20030;-52
2021/08/27 05:09:07;;;;;;;4.55;4.15;;;;;;;16.38;68.48;100311.38;4994221;28;20038;-53
2021/08/27 05:11:33;;;;;;;4.10;3.75;;;;;;;16.38;68.49;100305.22;4991250;28;20553;-53
2021/08/27 05:13:58;;;;;;;3.97;3.65;;;;;;;16.38;68.34;100305.22;4997011;28;20021;-54
2021/08/27 05:16:23;;;;;;;4.20;3.60;;;;;;;16.37;68.30;100308.81;4999503;28;20505;-54
2021/08/27 05:18:50;;;;;;;4.13;3.80;;;;;;;16.35;68.40;100306.22;4980981;28;20112;-54
2021/08/27 05:21:16;;;;;;;4.18;3.85;;;;;;;16.35;68.55;100300.00;4998974;28;20018;-53
2021/08/27 05:23:41;;;;;;;4.07;3.75;;;;;;;16.35;68.43;100295.56;5000187;28;20071;-56
2021/08/27 05:26:06;;;;;;;3.88;3.58;;;;;;;16.36;68.24;100293.75;4980817;28;20049;-56
2021/08/27 05:28:34;;;;;;;4.00;3.63;;;;;;;16.34;68.43;100304.47;4997230;28;20018;-56
2021/08/27 05:31:01;;;;;;;4.20;3.90;;;;;;;16.35;68.37;100295.56;4999897;28;20026;-56
2021/08/27 05:33:26;;;;;;;4.43;3.97;;;;;;;16.34;68.45;100298.28;4973952;28;20014;-55
2021/08/27 05:35:52;;;;;;;4.07;3.67;;;;;;;16.34;68.44;100298.28;4992485;28;20029;-56
2021/08/27 05:38:18;;;;;;;3.90;3.55;;;;;;;16.33;68.38;100296.53;4995345;28;20092;-56
2021/08/27 05:40:44;;;;;;;4.40;4.00;;;;;;;16.33;68.37;100304.50;4993488;28;20026;-56
2021/08/27 05:43:09;;;;;;;6.05;4.40;;;;;;;16.32;68.37;100305.44;4993157;28;20053;-53
2021/08/27 05:45:34;;;;;;;4.15;3.75;;;;;;;16.34;68.29;100303.63;4994696;28;20509;-52
2021/08/27 05:48:00;;;;;;;4.13;3.80;;;;;;;16.33;68.12;100300.06;4973953;28;20026;-54
2021/08/27 05:50:25;;;;;;;4.00;3.70;;;;;;;16.34;68.18;100308.94;4992031;28;20169;-54
2021/08/27 05:52:50;;;;;;;4.80;4.40;;;;;;;16.35;68.13;100300.91;4992771;28;20033;-54
2021/08/27 05:55:16;;;;;;;5.40;4.07;;;;;;;16.33;68.19;100307.19;4992855;28;20502;-53
2021/08/27 05:57:41;;;;;;;5.78;4.65;;;;;;;16.33;68.38;100307.19;4992012;28;20022;-53
2021/08/27 06:00:08;;;;;;;5.95;5.18;;;;;;;16.32;68.35;100305.44;4993183;28;20473;-50
2021/08/27 06:02:33;;;;;;;5.85;5.25;;;;;;;16.34;68.16;100315.09;4992987;28;20092;-51
2021/08/27 06:05:01;;;;;;;6.90;5.90;;;;;;;16.32;68.05;100300.13;4992328;28;20477;-55
2021/08/27 06:07:27;;;;;;;6.18;5.00;;;;;;;16.32;68.11;100300.13;4994451;28;20029;-55
2021/08/27 06:09:53;;;;;;;7.13;5.93;;;;;;;16.35;67.93;100305.34;4992570;28;20022;-54
2021/08/27 06:12:18;;;;;;;6.60;5.40;;;;;;;16.36;68.02;100307.94;4991537;28;20094;-55
2021/08/27 06:14:43;;;;;;;6.10;5.25;;;;;;;16.36;68.10;100301.75;4992172;28;20022;-55
2021/08/27 06:17:09;;;;;;;7.10;6.05;;;;;;;16.37;67.80;100298.19;4990496;28;20041;-54
2021/08/27 06:19:35;;;;;;;7.45;6.75;;;;;;;16.36;67.88;100296.41;4991911;28;20111;-55
2021/08/27 06:22:00;;;;;;;7.18;6.47;;;;;;;16.38;67.84;100299.91;4991532;28;20033;-55
2021/08/27 06:24:25;;;;;;;6.68;5.97;;;;;;;16.37;67.51;100296.34;4992344;28;20053;-55
2021/08/27 06:26:51;;;;;;;7.07;6.35;;;;;;;16.38;67.60;100300.75;4996200;28;20060;-55
2021/08/27 06:29:16;;;;;;;6.82;5.95;;;;;;;16.39;67.66;100288.31;4991483;28;20405;-55
2021/08/27 06:31:41;;;;;;;8.23;6.13;;;;;;;16.38;67.58;100294.56;4993202;28;20445;-54
2021/08/27 06:34:07;;;;;;;7.03;6.35;;;;;;;16.37;67.69;100298.19;4994876;28;20469;-55
2021/08/27 06:36:32;;;;;;;6.97;6.25;;;;;;;16.36;67.73;100296.41;4996362;28;20753;-55
2021/08/27 06:38:57;;;;;;;8.25;7.18;;;;;;;16.37;67.38;100288.38;5001215;28;20030;-54
2021/08/27 06:41:23;;;;;;;8.93;6.78;;;;;;;16.36;67.63;100289.31;4993974;28;20114;-55
2021/08/27 06:43:48;;;;;;;6.40;5.68;;;;;;;16.35;67.75;100294.69;4994628;28;20020;-54
2021/08/27 06:46:19;;;;;;;6.75;6.00;;;;;;;16.36;67.60;100293.75;4993415;28;20022;-54
2021/08/27 06:48:44;;;;;;;;;;;;;;;16.38;67.61;100291.91;5003043;28;20061;-55
2021/08/27 06:51:10;;;;;;;6.70;6.00;;;;;;;16.34;67.74;100299.13;4999173;28;19949;-55
2021/08/27 06:53:36;;;;;;;6.72;6.05;;;;;;;16.34;67.62;100298.28;5001191;28;20018;-55
2021/08/27 06:56:02;;;;;;;7.15;5.75;;;;;;;16.32;67.84;100287.69;4996765;28;20474;-52
2021/08/27 06:58:27;;;;;;;6.20;5.43;;;;;;;16.34;67.64;100292.97;4999294;28;20056;-52
2021/08/27 07:00:53;;;;;;;6.15;5.47;;;;;;;16.32;67.63;100293.03;4998259;28;20021;-52
2021/08/27 07:03:40;;;;;;;5.43;4.93;;;;;;;16.31;68.01;100287.75;4998901;28;20054;-53
2021/08/27 07:06:05;;;;;;;5.25;4.75;;;;;;;16.30;67.78;100286.88;4995668;28;20088;-52
2021/08/27 07:08:31;;;;;;;5.53;4.45;;;;;;;16.31;67.70;100291.31;4991539;28;20445;-52
2021/08/27 07:10:57;;;;;;;4.82;4.35;;;;;;;16.33;67.54;100288.56;4990966;28;20057;-52
2021/08/27 07:13:22;;;;;;;5.88;4.90;;;;;;;16.34;67.45;100279.66;4994535;28;20034;-54
2021/08/27 07:15:49;;;;;;;4.90;4.40;;;;;;;16.33;67.76;100285.88;4995564;28;20109;-52
2021/08/27 07:18:15;;;;;;;5.32;4.82;;;;;;;16.32;67.67;100284.16;4995043;28;20521;-52
2021/08/27 07:20:41;;;;;;;5.13;4.20;;;;;;;16.32;67.72;100286.81;4996828;28;20097;-52
2021/08/27 07:23:07;;;;;;;5.03;4.07;;;;;;;16.32;67.61;100292.16;4991247;28;20096;-53
2021/08/27 07:25:33;;;;;;;3.85;3.53;;;;;;;16.32;67.64;100290.38;4993228;28;20505;-53
2021/08/27 07:27:59;;;;;;;4.22;3.83;;;;;;;16.31;67.60;100291.31;4994421;28;20105;-52
2021/08/27 07:30:24;;;;;;;4.40;3.75;;;;;;;16.34;67.43;100298.28;4991858;28;20102;-54
2021/08/27 07:32:50;;;;;;;4.10;3.70;;;;;;;16.30;67.66;100286.88;4993722;28;20034;-51
2021/08/27 07:35:16;;;;;;;3.90;3.30;;;;;;;16.30;67.58;100297.53;4994380;28;20098;-51
2021/08/27 07:37:42;;;;;;;3.95;3.65;;;;;;;16.28;67.65;100289.59;4999497;28;20033;-53
2021/08/27 07:40:13;;;;;;;3.90;3.55;;;;;;;16.28;67.75;100284.28;4991589;28;20024;-52
2021/08/27 07:42:39;;;;;;;4.22;3.83;;;;;;;16.29;67.62;100280.72;4989722;28;20044;-50
2021/08/27 07:45:06;;;;;;;3.58;3.28;;;;;;;16.29;67.72;100293.13;4995428;28;20155;-54
2021/08/27 07:47:31;;;;;;;3.80;3.50;;;;;;;16.31;67.75;100301.06;4974177;28;20030;-51
2021/08/27 07:49:57;;;;;;;3.67;3.38;;;;;;;16.30;67.61;100292.19;4993759;28;20386;-50
2021/08/27 07:52:23;;;;;;;4.00;3.60;;;;;;;16.29;67.63;100283.38;4992229;28;20018;-51
2021/08/27 07:54:49;;;;;;;4.00;3.60;;;;;;;16.28;67.82;100284.28;4997423;28;20088;-51
2021/08/27 07:57:15;;;;;;;4.88;3.17;;;;;;;16.27;67.81;100298.53;5000132;28;20038;-53
2021/08/27 07:59:40;;;;;;;3.45;3.13;;;;;;;16.28;67.81;100294.91;4992131;28;20018;-54
2021/08/27 08:02:08;;;;;;;4.03;3.38;;;;;;;16.23;67.92;100301.34;4993195;28;20026;-53
2021/08/27 08:04:34;;;;;;;3.88;3.10;;;;;;;16.24;67.92;100298.63;4992832;28;20018;-53
2021/08/27 08:07:00;;;;;;;3.33;3.03;;;;;;;16.24;67.97;100293.31;4998121;28;20033;-50
2021/08/27 08:09:25;;;;;;;3.53;3.22;;;;;;;16.25;67.80;100303.06;4996365;28;20026;-50
2021/08/27 08:11:51;;;;;;;4.18;3.38;;;;;;;16.24;68.15;100314.59;4999630;22;20059;-51
2021/08/27 08:14:18;;;;;;;3.03;2.75;;;;;;;16.23;68.13;100317.31;4993465;28;20026;-51
2021/08/27 08:16:44;;;;;;;3.00;2.70;;;;;;;16.20;68.19;100306.81;5004826;28;20393;-51
2021/08/27 08:19:10;;;;;;;3.10;2.80;;;;;;;16.20;68.23;100302.34;5002150;28;20030;-51
2021/08/27 08:21:36;;;;;;;2.53;2.33;;;;;;;16.19;68.16;100311.25;5008736;28;20018;-51
2021/08/27 08:24:02;;;;;;;2.60;2.33;;;;;;;16.22;68.02;100315.59;5010160;28;20026;-51
2021/08/27 08:26:29;;;;;;;2.60;2.40;;;;;;;16.22;68.32;100315.59;5008598;28;20504;-51
2021/08/27 08:28:55;;;;;;;2.65;2.45;;;;;;;16.19;68.25;100316.56;5008359;28;20024;-51
2021/08/27 08:31:21;;;;;;;2.40;2.15;;;;;;;16.21;68.33;100319.19;5010811;28;20034;-51
2021/08/27 08:33:49;;;;;;;3.10;2.50;;;;;;;16.20;68.23;100317.47;5010436;28;20049;-51
2021/08/27 08:36:15;;;;;;;2.78;2.50;;;;;;;16.21;68.43;100324.50;5009037;28;20417;-51
2021/08/27 08:38:41;;;;;;;2.35;2.15;;;;;;;16.19;68.26;100327.22;5006464;28;20061;-51
2021/08/27 08:41:07;;;;;;;2.67;2.47;;;;;;;16.20;68.16;100326.28;5004412;28;20056;-51
2021/08/27 08:43:33;;;;;;;2.15;1.95;;;;;;;16.18;68.25;100328.16;5002046;28;20022;-51
2021/08/27 08:46:00;;;;;;;2.97;1.85;;;;;;;16.18;68.34;100324.63;5002345;28;20046;-51
2021/08/27 08:48:28;;;;;;;2.30;2.20;;;;;;;16.15;68.68;100326.44;5006309;28;20409;-51
2021/08/27 08:50:54;;;;;;;3.85;2.70;;;;;;;16.19;68.27;100321.03;5008413;28;20030;-52
2021/08/27 08:53:22;;;;;;;3.13;1.95;;;;;;;16.18;68.30;100325.50;5008882;28;20034;-50
2021/08/27 08:55:47;;;;;;;2.80;2.00;;;;;;;16.16;68.41;100325.56;5003757;28;20079;-51
2021/08/27 08:58:13;;;;;;;2.50;1.95;;;;;;;16.18;68.35;100327.28;5004152;28;20033;-51
2021/08/27 09:00:38;;;;;;;2.20;1.92;;;;;;;16.18;68.50;100325.50;5006507;28;20030;-51
2021/08/27 09:03:04;;;;;;;2.17;1.98;;;;;;;16.19;68.23;100331.66;5006452;28;20033;-51
2021/08/27 09:05:29;;;;;;;2.15;1.98;;;;;;;16.19;68.47;100329.00;5009518;28;20444;-51
2021/08/27 09:07:55;;;;;;;2.33;2.13;;;;;;;16.14;68.54;100327.38;5010018;28;20485;-51
2021/08/27 09:10:21;;;;;;;2.92;2.30;;;;;;;16.14;68.60;100337.19;5006839;28;20022;-51
2021/08/27 09:12:48;;;;;;;2.10;1.90;;;;;;;16.18;68.19;100330.81;5004799;28;20033;-51
2021/08/27 09:15:15;;;;;;;1.67;1.58;;;;;;;16.17;68.67;100329.06;5004954;28;20084;-51
2021/08/27 09:17:46;;;;;;;2.13;1.92;;;;;;;16.15;68.61;100333.59;5009689;28;20045;-51
2021/08/27 09:20:17;;;;;;;2.60;1.92;;;;;;;16.13;68.75;100338.97;5012033;28;20020;-51
2021/08/27 09:22:46;;;;;;;2.22;2.03;;;;;;;16.12;68.83;100339.00;5010761;28;20026;-50
2021/08/27 09:25:12;;;;;;;1.88;1.77;;;;;;;16.14;68.62;100339.84;5010802;28;20030;-51
2021/08/27 09:28:07;;;;;;;2.78;2.30;;;;;;;16.13;68.75;100336.31;5009698;28;20033;-51
2021/08/27 09:30:39;;;;;;;2.28;1.85;;;;;;;16.13;68.61;100338.97;5010846;28;20061;-50
2021/08/27 09:33:13;;;;;;;1.88;1.75;;;;;;;16.13;68.73;100348.72;5010726;28;20034;-51
2021/08/27 09:35:39;;;;;;;1.65;1.55;;;;;;;16.12;68.56;100349.66;5004196;28;20084;-51
2021/08/27 09:38:13;;;;;;;2.42;1.70;;;;;;;16.13;68.78;100359.38;5008357;28;20180;-50
2021/08/27 09:40:39;;;;;;;1.95;1.85;;;;;;;16.13;68.88;100354.03;4994032;28;20562;-51
2021/08/27 09:43:06;;;;;;;2.33;2.13;;;;;;;16.13;68.69;100346.94;4991118;28;20038;-51
2021/08/27 09:45:37;;;;;;;2.38;2.17;;;;;;;16.11;68.80;100348.78;5007378;28;20470;-51
2021/08/27 09:48:09;;;;;;;1.90;1.80;;;;;;;16.10;68.78;100348.84;5062731;22;20046;-48
2021/08/27 09:50:37;;;;;;;3.10;2.25;;;;;;;16.13;68.71;100348.72;5029292;28;20049;-49
2021/08/27 09:53:07;;;;;;;2.10;1.88;;;;;;;16.11;68.76;100346.13;5021609;28;20026;-49
2021/08/27 09:55:35;;;;;;;1.88;1.63;;;;;;;16.13;68.57;100346.06;5013301;28;20025;-48
2021/08/27 09:58:10;;;;;;;1.98;1.88;;;;;;;16.12;68.66;100347.00;5031623;28;20121;-48
2021/08/27 10:00:40;;;;;;;1.95;1.77;;;;;;;16.12;68.66;100353.19;5028570;28;20029;-48
2021/08/27 10:03:22;;;;;;;1.80;1.70;;;;;;;16.10;68.98;100351.50;5028967;28;20499;-48
2021/08/27 10:05:49;;;;;;;1.63;1.52;;;;;;;16.10;68.78;100354.16;5028326;28;20104;-48
2021/08/27 10:08:24;;;;;;;1.70;1.60;;;;;;;16.10;68.52;100349.72;5024184;28;20025;-48
2021/08/27 10:10:53;;;;;;;2.08;1.88;;;;;;;16.09;68.92;100348.00;5028381;28;20040;-48
2021/08/27 10:13:19;;;;;;;1.85;1.73;;;;;;;16.09;68.79;100350.66;5022267;28;20029;-48
2021/08/27 10:15:45;;;;;;;1.70;1.58;;;;;;;16.10;68.78;100355.03;5024563;28;20041;-48
2021/08/27 10:18:12;;;;;;;2.03;1.83;;;;;;;16.10;68.71;100343.50;5026550;28;20477;-47
2021/08/27 10:20:39;;;;;;;1.58;1.48;;;;;;;16.09;68.81;100353.31;5022613;28;20076;-48
2021/08/27 10:23:10;;;;;;;1.88;1.77;;;;;;;16.05;69.14;100343.72;5024868;28;20029;-48
2021/08/27 10:25:37;;;;;;;1.50;1.40;;;;;;;16.08;68.88;100353.34;5026953;28;20017;-48
2021/08/27 10:28:04;;;;;;;2.20;1.90;;;;;;;16.10;68.78;100348.84;5002713;28;20025;-47
2021/08/27 10:30:49;;;;;;;2.13;1.50;;;;;;;16.08;69.03;100348.03;5027120;28;20029;-48
2021/08/27 10:33:16;;;;;;;1.33;1.23;;;;;;;16.08;69.18;100351.59;5027530;28;20040;-48
2021/08/27 10:35:47;;;;;;;1.52;1.42;;;;;;;16.08;69.20;100350.69;5025467;28;20385;-48
2021/08/27 10:38:41;;;;;;;1.60;1.50;;;;;;;16.07;68.98;100343.66;5025049;28;20025;-48
2021/08/27 10:41:21;;;;;;;1.83;1.50;;;;;;;16.07;69.16;100357.81;5019490;28;20033;-48
2021/08/27 10:44:00;;;;;;;1.70;1.60;;;;;;;16.07;69.07;100343.66;5026441;28;20045;-48
2021/08/27 10:46:44;;;;;;;1.63;1.50;;;;;;;16.07;69.07;100343.66;5027884;28;20036;-48
2021/08/27 10:49:14;;;;;;;1.88;1.77;;;;;;;16.05;69.26;100346.38;5028394;28;20731;-48
2021/08/27 10:51:42;;;;;;;1.73;1.63;;;;;;;16.07;69.24;100348.97;5027663;28;20034;-49
2021/08/27 10:54:09;;;;;;;1.85;1.75;;;;;;;16.07;69.25;100354.28;5028655;28;20129;-49
2021/08/27 10:56:51;;;;;;;2.72;2.03;;;;;;;16.05;69.24;100346.38;5025114;28;20028;-48
2021/08/27 10:59:24;;;;;;;1.85;1.70;;;;;;;16.08;69.17;100356.03;5025126;28;20458;-48
2021/08/27 11:02:00;;;;;;;1.58;1.48;;;;;;;16.04;69.45;100344.63;5030193;28;20550;-48
2021/08/27 11:04:27;;;;;;;1.70;1.50;;;;;;;16.05;69.45;100350.81;5028078;28;20036;-48
2021/08/27 11:06:57;;;;;;;1.92;1.80;;;;;;;16.05;69.23;100351.69;5024166;28;20025;-48
2021/08/27 11:09:25;;;;;;;1.40;1.30;;;;;;;16.03;69.36;100359.72;5029233;28;20021;-48
2021/08/27 11:12:16;;;;;;;1.58;1.48;;;;;;;16.05;69.51;100350.81;5028623;28;20488;-48
2021/08/27 11:14:46;;;;;;;2.03;1.92;;;;;;;16.05;69.48;100334.84;5026355;28;20500;-48
2021/08/27 11:17:13;;;;;;;1.50;1.40;;;;;;;16.03;69.51;100346.41;5025083;28;20033;-48
2021/08/27 11:19:44;;;;;;;2.25;1.73;;;;;;;16.06;69.27;100347.22;5028632;28;20021;-48
2021/08/27 11:22:13;;;;;;;;;;;;;;;16.08;69.34;100353.34;5003318;28;20117;-48
2021/08/27 11:24:40;;;;;;;1.40;1.30;;;;;;;16.05;69.58;100349.03;5026157;28;20039;-48
2021/08/27 11:27:08;;;;;;;1.90;1.70;;;;;;;16.04;69.56;100352.59;5024832;28;20029;-48
2021/08/27 11:29:40;;;;;;;1.90;1.80;;;;;;;16.05;69.57;100345.50;5027998;28;20025;-48
2021/08/27 11:32:15;;;;;;;1.67;1.58;;;;;;;16.06;69.54;100341.91;5028323;28;20037;-48